<?xml version="1.0"?>
<gpx xmlns="http://www.topografix.com/GPX/1/1" version="1.1" creator="afstandmeten.nl" xmlns:xsi="http://www.w3.org/2001/XMLSchema-instance" xsi:schemaLocation="http://www.topografix.com/GPX/1/1 http://www.topografix.com/GPX/1/1/gpx.xsd">
  <trk>
    <name>M definitief</name>
    <desc/>
    <trkseg>
      <trkpt lat="51.0409836" lon="4.3242831">
        <ele>0.00000</ele>
        <time>2026-03-26T00:00:00Z</time>
      </trkpt>
      <trkpt lat="51.0448487" lon="4.3202757">
        <ele>0.00000</ele>
        <time>2026-03-26T00:00:44Z</time>
      </trkpt>
      <trkpt lat="51.0455669" lon="4.3188797">
        <ele>0.00000</ele>
        <time>2026-03-26T00:00:55Z</time>
      </trkpt>
      <trkpt lat="51.0460596" lon="4.3181072">
        <ele>0.00000</ele>
        <time>2026-03-26T00:01:01Z</time>
      </trkpt>
      <trkpt lat="51.0468534" lon="4.3170923">
        <ele>0.00000</ele>
        <time>2026-03-26T00:01:11Z</time>
      </trkpt>
      <trkpt lat="51.0470626" lon="4.3167704">
        <ele>0.00000</ele>
        <time>2026-03-26T00:01:14Z</time>
      </trkpt>
      <trkpt lat="51.0462242" lon="4.3148611">
        <ele>0.00000</ele>
        <time>2026-03-26T00:01:28Z</time>
      </trkpt>
      <trkpt lat="51.0460555" lon="4.314743">
        <ele>0.00000</ele>
        <time>2026-03-26T00:01:30Z</time>
      </trkpt>
      <trkpt lat="51.0457382" lon="4.314389">
        <ele>0.00000</ele>
        <time>2026-03-26T00:01:33Z</time>
      </trkpt>
      <trkpt lat="51.0453052" lon="4.3136787">
        <ele>0.00000</ele>
        <time>2026-03-26T00:01:39Z</time>
      </trkpt>
      <trkpt lat="51.0444486" lon="4.312681">
        <ele>0.00000</ele>
        <time>2026-03-26T00:01:49Z</time>
      </trkpt>
      <trkpt lat="51.0439491" lon="4.312005">
        <ele>0.00000</ele>
        <time>2026-03-26T00:01:55Z</time>
      </trkpt>
      <trkpt lat="51.0421205" lon="4.3100095">
        <ele>0.00000</ele>
        <time>2026-03-26T00:02:16Z</time>
      </trkpt>
      <trkpt lat="51.0420463" lon="4.3100202">
        <ele>0.00000</ele>
        <time>2026-03-26T00:02:17Z</time>
      </trkpt>
      <trkpt lat="51.0419653" lon="4.3101919">
        <ele>0.00000</ele>
        <time>2026-03-26T00:02:18Z</time>
      </trkpt>
      <trkpt lat="51.0413578" lon="4.3102241">
        <ele>0.00000</ele>
        <time>2026-03-26T00:02:24Z</time>
      </trkpt>
      <trkpt lat="51.0412633" lon="4.3101704">
        <ele>0.00000</ele>
        <time>2026-03-26T00:02:25Z</time>
      </trkpt>
      <trkpt lat="51.0403057" lon="4.3090224">
        <ele>0.00000</ele>
        <time>2026-03-26T00:02:36Z</time>
      </trkpt>
      <trkpt lat="51.040056" lon="4.3089044">
        <ele>0.00000</ele>
        <time>2026-03-26T00:02:39Z</time>
      </trkpt>
      <trkpt lat="51.0390984" lon="4.3082178">
        <ele>0.00000</ele>
        <time>2026-03-26T00:02:49Z</time>
      </trkpt>
      <trkpt lat="51.0377219" lon="4.3065119">
        <ele>0.00000</ele>
        <time>2026-03-26T00:03:05Z</time>
      </trkpt>
      <trkpt lat="51.037668" lon="4.3065362">
        <ele>0.00000</ele>
        <time>2026-03-26T00:03:06Z</time>
      </trkpt>
      <trkpt lat="51.037304" lon="4.3067908">
        <ele>0.00000</ele>
        <time>2026-03-26T00:03:10Z</time>
      </trkpt>
      <trkpt lat="51.0370745" lon="4.3068874">
        <ele>0.00000</ele>
        <time>2026-03-26T00:03:12Z</time>
      </trkpt>
      <trkpt lat="51.0368517" lon="4.3068552">
        <ele>0.00000</ele>
        <time>2026-03-26T00:03:14Z</time>
      </trkpt>
      <trkpt lat="51.0367686" lon="4.306823">
        <ele>0.00000</ele>
        <time>2026-03-26T00:03:15Z</time>
      </trkpt>
      <trkpt lat="51.0315689" lon="4.3017912">
        <ele>0.00000</ele>
        <time>2026-03-26T00:04:12Z</time>
      </trkpt>
      <trkpt lat="51.031416" lon="4.3021126">
        <ele>0.00000</ele>
        <time>2026-03-26T00:04:15Z</time>
      </trkpt>
      <trkpt lat="51.0309221" lon="4.3032503">
        <ele>0.00000</ele>
        <time>2026-03-26T00:04:23Z</time>
      </trkpt>
      <trkpt lat="51.0307398" lon="4.3036473">
        <ele>0.00000</ele>
        <time>2026-03-26T00:04:26Z</time>
      </trkpt>
      <trkpt lat="51.03049" lon="4.3039906">
        <ele>0.00000</ele>
        <time>2026-03-26T00:04:29Z</time>
      </trkpt>
      <trkpt lat="51.029342" lon="4.3050631">
        <ele>0.00000</ele>
        <time>2026-03-26T00:04:42Z</time>
      </trkpt>
      <trkpt lat="51.0291087" lon="4.3062289">
        <ele>0.00000</ele>
        <time>2026-03-26T00:04:49Z</time>
      </trkpt>
      <trkpt lat="51.0290255" lon="4.3069196">
        <ele>0.00000</ele>
        <time>2026-03-26T00:04:53Z</time>
      </trkpt>
      <trkpt lat="51.0289238" lon="4.3069526">
        <ele>0.00000</ele>
        <time>2026-03-26T00:04:54Z</time>
      </trkpt>
      <trkpt lat="51.0287062" lon="4.3065164">
        <ele>0.00000</ele>
        <time>2026-03-26T00:04:58Z</time>
      </trkpt>
      <trkpt lat="51.02788" lon="4.3047841">
        <ele>0.00000</ele>
        <time>2026-03-26T00:05:11Z</time>
      </trkpt>
      <trkpt lat="51.0274935" lon="4.3039906">
        <ele>0.00000</ele>
        <time>2026-03-26T00:05:17Z</time>
      </trkpt>
      <trkpt lat="51.0272437" lon="4.3035078">
        <ele>0.00000</ele>
        <time>2026-03-26T00:05:20Z</time>
      </trkpt>
      <trkpt lat="51.0263395" lon="4.3021023">
        <ele>0.00000</ele>
        <time>2026-03-26T00:05:32Z</time>
      </trkpt>
      <trkpt lat="51.0261364" lon="4.3023445">
        <ele>0.00000</ele>
        <time>2026-03-26T00:05:35Z</time>
      </trkpt>
      <trkpt lat="51.0257791" lon="4.302862">
        <ele>0.00000</ele>
        <time>2026-03-26T00:05:39Z</time>
      </trkpt>
      <trkpt lat="51.0251861" lon="4.3036902">
        <ele>0.00000</ele>
        <time>2026-03-26T00:05:47Z</time>
      </trkpt>
      <trkpt lat="51.0250308" lon="4.3038297">
        <ele>0.00000</ele>
        <time>2026-03-26T00:05:48Z</time>
      </trkpt>
      <trkpt lat="51.0248822" lon="4.3039262">
        <ele>0.00000</ele>
        <time>2026-03-26T00:05:50Z</time>
      </trkpt>
      <trkpt lat="51.0243924" lon="4.3039956">
        <ele>0.00000</ele>
        <time>2026-03-26T00:05:55Z</time>
      </trkpt>
      <trkpt lat="51.0239875" lon="4.3040844">
        <ele>0.00000</ele>
        <time>2026-03-26T00:05:58Z</time>
      </trkpt>
      <trkpt lat="51.0230002" lon="4.3043337">
        <ele>0.00000</ele>
        <time>2026-03-26T00:06:08Z</time>
      </trkpt>
      <trkpt lat="51.0228427" lon="4.3044088">
        <ele>0.00000</ele>
        <time>2026-03-26T00:06:09Z</time>
      </trkpt>
      <trkpt lat="51.0227206" lon="4.3045657">
        <ele>0.00000</ele>
        <time>2026-03-26T00:06:11Z</time>
      </trkpt>
      <trkpt lat="51.022446" lon="4.3049347">
        <ele>0.00000</ele>
        <time>2026-03-26T00:06:14Z</time>
      </trkpt>
      <trkpt lat="51.0216983" lon="4.3053206">
        <ele>0.00000</ele>
        <time>2026-03-26T00:06:22Z</time>
      </trkpt>
      <trkpt lat="51.0216559" lon="4.305439">
        <ele>0.00000</ele>
        <time>2026-03-26T00:06:23Z</time>
      </trkpt>
      <trkpt lat="51.0215749" lon="4.3059347">
        <ele>0.00000</ele>
        <time>2026-03-26T00:06:26Z</time>
      </trkpt>
      <trkpt lat="51.0196991" lon="4.3075549">
        <ele>0.00000</ele>
        <time>2026-03-26T00:06:46Z</time>
      </trkpt>
      <trkpt lat="51.0195994" lon="4.3075418">
        <ele>0.00000</ele>
        <time>2026-03-26T00:06:47Z</time>
      </trkpt>
      <trkpt lat="51.0188808" lon="4.3044734">
        <ele>0.00000</ele>
        <time>2026-03-26T00:07:06Z</time>
      </trkpt>
      <trkpt lat="51.0187226" lon="4.3039189">
        <ele>0.00000</ele>
        <time>2026-03-26T00:07:10Z</time>
      </trkpt>
      <trkpt lat="51.0186824" lon="4.3037718">
        <ele>0.00000</ele>
        <time>2026-03-26T00:07:11Z</time>
      </trkpt>
      <trkpt lat="51.0187317" lon="4.3036165">
        <ele>0.00000</ele>
        <time>2026-03-26T00:07:12Z</time>
      </trkpt>
      <trkpt lat="51.0195333" lon="4.302827">
        <ele>0.00000</ele>
        <time>2026-03-26T00:07:21Z</time>
      </trkpt>
      <trkpt lat="51.0196346" lon="4.3027039">
        <ele>0.00000</ele>
        <time>2026-03-26T00:07:22Z</time>
      </trkpt>
      <trkpt lat="51.0196331" lon="4.3024984">
        <ele>0.00000</ele>
        <time>2026-03-26T00:07:23Z</time>
      </trkpt>
      <trkpt lat="51.0183657" lon="4.299513">
        <ele>0.00000</ele>
        <time>2026-03-26T00:07:45Z</time>
      </trkpt>
      <trkpt lat="51.0182084" lon="4.2993557">
        <ele>0.00000</ele>
        <time>2026-03-26T00:07:47Z</time>
      </trkpt>
      <trkpt lat="51.0180063" lon="4.2991831">
        <ele>0.00000</ele>
        <time>2026-03-26T00:07:49Z</time>
      </trkpt>
      <trkpt lat="51.0176415" lon="4.2988613">
        <ele>0.00000</ele>
        <time>2026-03-26T00:07:53Z</time>
      </trkpt>
      <trkpt lat="51.0174919" lon="4.2987778">
        <ele>0.00000</ele>
        <time>2026-03-26T00:07:54Z</time>
      </trkpt>
      <trkpt lat="51.0172557" lon="4.2988431">
        <ele>0.00000</ele>
        <time>2026-03-26T00:07:56Z</time>
      </trkpt>
      <trkpt lat="51.0170048" lon="4.2989341">
        <ele>0.00000</ele>
        <time>2026-03-26T00:07:59Z</time>
      </trkpt>
      <trkpt lat="51.0168098" lon="4.2989171">
        <ele>0.00000</ele>
        <time>2026-03-26T00:08:01Z</time>
      </trkpt>
      <trkpt lat="51.0166436" lon="4.2986755">
        <ele>0.00000</ele>
        <time>2026-03-26T00:08:03Z</time>
      </trkpt>
      <trkpt lat="51.016468" lon="4.2983381">
        <ele>0.00000</ele>
        <time>2026-03-26T00:08:05Z</time>
      </trkpt>
      <trkpt lat="51.0161289" lon="4.2978966">
        <ele>0.00000</ele>
        <time>2026-03-26T00:08:10Z</time>
      </trkpt>
      <trkpt lat="51.0148597" lon="4.2947724">
        <ele>0.00000</ele>
        <time>2026-03-26T00:08:32Z</time>
      </trkpt>
      <trkpt lat="51.0151991" lon="4.2943498">
        <ele>0.00000</ele>
        <time>2026-03-26T00:08:36Z</time>
      </trkpt>
      <trkpt lat="51.0157243" lon="4.2934932">
        <ele>0.00000</ele>
        <time>2026-03-26T00:08:43Z</time>
      </trkpt>
      <trkpt lat="51.0130174" lon="4.2886162">
        <ele>0.00000</ele>
        <time>2026-03-26T00:09:22Z</time>
      </trkpt>
      <trkpt lat="51.0127723" lon="4.2885553">
        <ele>0.00000</ele>
        <time>2026-03-26T00:09:24Z</time>
      </trkpt>
      <trkpt lat="51.0122556" lon="4.2884627">
        <ele>0.00000</ele>
        <time>2026-03-26T00:09:29Z</time>
      </trkpt>
      <trkpt lat="51.0118735" lon="4.2883487">
        <ele>0.00000</ele>
        <time>2026-03-26T00:09:33Z</time>
      </trkpt>
      <trkpt lat="51.0116881" lon="4.2882901">
        <ele>0.00000</ele>
        <time>2026-03-26T00:09:34Z</time>
      </trkpt>
      <trkpt lat="51.0114783" lon="4.2878973">
        <ele>0.00000</ele>
        <time>2026-03-26T00:09:38Z</time>
      </trkpt>
      <trkpt lat="51.0114013" lon="4.2878059">
        <ele>0.00000</ele>
        <time>2026-03-26T00:09:38Z</time>
      </trkpt>
      <trkpt lat="51.0106639" lon="4.2874967">
        <ele>0.00000</ele>
        <time>2026-03-26T00:09:46Z</time>
      </trkpt>
      <trkpt lat="51.0105164" lon="4.2873833">
        <ele>0.00000</ele>
        <time>2026-03-26T00:09:47Z</time>
      </trkpt>
      <trkpt lat="51.0104069" lon="4.2872529">
        <ele>0.00000</ele>
        <time>2026-03-26T00:09:49Z</time>
      </trkpt>
      <trkpt lat="51.0105796" lon="4.2868528">
        <ele>0.00000</ele>
        <time>2026-03-26T00:09:51Z</time>
      </trkpt>
      <trkpt lat="51.0106305" lon="4.286456">
        <ele>0.00000</ele>
        <time>2026-03-26T00:09:54Z</time>
      </trkpt>
      <trkpt lat="51.0106228" lon="4.2862001">
        <ele>0.00000</ele>
        <time>2026-03-26T00:09:55Z</time>
      </trkpt>
      <trkpt lat="51.0106002" lon="4.285946">
        <ele>0.00000</ele>
        <time>2026-03-26T00:09:57Z</time>
      </trkpt>
      <trkpt lat="51.0105094" lon="4.2856177">
        <ele>0.00000</ele>
        <time>2026-03-26T00:09:59Z</time>
      </trkpt>
      <trkpt lat="51.0101486" lon="4.2848401">
        <ele>0.00000</ele>
        <time>2026-03-26T00:10:05Z</time>
      </trkpt>
      <trkpt lat="51.0097024" lon="4.2841315">
        <ele>0.00000</ele>
        <time>2026-03-26T00:10:11Z</time>
      </trkpt>
      <trkpt lat="51.0093475" lon="4.2837164">
        <ele>0.00000</ele>
        <time>2026-03-26T00:10:15Z</time>
      </trkpt>
      <trkpt lat="51.0088996" lon="4.2834039">
        <ele>0.00000</ele>
        <time>2026-03-26T00:10:20Z</time>
      </trkpt>
      <trkpt lat="51.0083664" lon="4.2833698">
        <ele>0.00000</ele>
        <time>2026-03-26T00:10:25Z</time>
      </trkpt>
      <trkpt lat="51.0078584" lon="4.2834705">
        <ele>0.00000</ele>
        <time>2026-03-26T00:10:29Z</time>
      </trkpt>
      <trkpt lat="51.006632" lon="4.2841473">
        <ele>0.00000</ele>
        <time>2026-03-26T00:10:42Z</time>
      </trkpt>
      <trkpt lat="51.0065819" lon="4.2841221">
        <ele>0.00000</ele>
        <time>2026-03-26T00:10:42Z</time>
      </trkpt>
      <trkpt lat="51.0064195" lon="4.2835758">
        <ele>0.00000</ele>
        <time>2026-03-26T00:10:46Z</time>
      </trkpt>
      <trkpt lat="51.0060547" lon="4.282932">
        <ele>0.00000</ele>
        <time>2026-03-26T00:10:51Z</time>
      </trkpt>
      <trkpt lat="51.005869" lon="4.2825222">
        <ele>0.00000</ele>
        <time>2026-03-26T00:10:54Z</time>
      </trkpt>
      <trkpt lat="51.0058015" lon="4.2820179">
        <ele>0.00000</ele>
        <time>2026-03-26T00:10:57Z</time>
      </trkpt>
      <trkpt lat="51.0058156" lon="4.2813057">
        <ele>0.00000</ele>
        <time>2026-03-26T00:11:01Z</time>
      </trkpt>
      <trkpt lat="51.0064959" lon="4.2785139">
        <ele>0.00000</ele>
        <time>2026-03-26T00:11:19Z</time>
      </trkpt>
      <trkpt lat="51.0065047" lon="4.2783947">
        <ele>0.00000</ele>
        <time>2026-03-26T00:11:20Z</time>
      </trkpt>
      <trkpt lat="51.0064211" lon="4.2782976">
        <ele>0.00000</ele>
        <time>2026-03-26T00:11:21Z</time>
      </trkpt>
      <trkpt lat="51.006196" lon="4.278047">
        <ele>0.00000</ele>
        <time>2026-03-26T00:11:24Z</time>
      </trkpt>
      <trkpt lat="51.0061503" lon="4.2779505">
        <ele>0.00000</ele>
        <time>2026-03-26T00:11:24Z</time>
      </trkpt>
      <trkpt lat="51.0066472" lon="4.276248">
        <ele>0.00000</ele>
        <time>2026-03-26T00:11:35Z</time>
      </trkpt>
      <trkpt lat="51.0065952" lon="4.2761652">
        <ele>0.00000</ele>
        <time>2026-03-26T00:11:36Z</time>
      </trkpt>
      <trkpt lat="51.0060576" lon="4.2759792">
        <ele>0.00000</ele>
        <time>2026-03-26T00:11:41Z</time>
      </trkpt>
      <trkpt lat="51.0060098" lon="4.2758664">
        <ele>0.00000</ele>
        <time>2026-03-26T00:11:42Z</time>
      </trkpt>
      <trkpt lat="51.0058841" lon="4.2750262">
        <ele>0.00000</ele>
        <time>2026-03-26T00:11:47Z</time>
      </trkpt>
      <trkpt lat="51.0050388" lon="4.2735636">
        <ele>0.00000</ele>
        <time>2026-03-26T00:11:59Z</time>
      </trkpt>
      <trkpt lat="51.0047296" lon="4.2731719">
        <ele>0.00000</ele>
        <time>2026-03-26T00:12:03Z</time>
      </trkpt>
      <trkpt lat="51.0039585" lon="4.2728341">
        <ele>0.00000</ele>
        <time>2026-03-26T00:12:10Z</time>
      </trkpt>
      <trkpt lat="51.0034575" lon="4.272448">
        <ele>0.00000</ele>
        <time>2026-03-26T00:12:16Z</time>
      </trkpt>
      <trkpt lat="51.0018118" lon="4.2709249">
        <ele>0.00000</ele>
        <time>2026-03-26T00:12:34Z</time>
      </trkpt>
      <trkpt lat="51.00181" lon="4.2705233">
        <ele>0.00000</ele>
        <time>2026-03-26T00:12:36Z</time>
      </trkpt>
      <trkpt lat="51.0016463" lon="4.27049">
        <ele>0.00000</ele>
        <time>2026-03-26T00:12:38Z</time>
      </trkpt>
      <trkpt lat="51.0003946" lon="4.2705948">
        <ele>0.00000</ele>
        <time>2026-03-26T00:12:50Z</time>
      </trkpt>
      <trkpt lat="51.0005859" lon="4.2718606">
        <ele>0.00000</ele>
        <time>2026-03-26T00:12:57Z</time>
      </trkpt>
      <trkpt lat="51.0001597" lon="4.2719871">
        <ele>0.00000</ele>
        <time>2026-03-26T00:13:01Z</time>
      </trkpt>
      <trkpt lat="50.9999735" lon="4.2718942">
        <ele>0.00000</ele>
        <time>2026-03-26T00:13:03Z</time>
      </trkpt>
      <trkpt lat="50.999722" lon="4.2720441">
        <ele>0.00000</ele>
        <time>2026-03-26T00:13:06Z</time>
      </trkpt>
      <trkpt lat="50.9994518" lon="4.2722894">
        <ele>0.00000</ele>
        <time>2026-03-26T00:13:09Z</time>
      </trkpt>
      <trkpt lat="50.9992377" lon="4.2725444">
        <ele>0.00000</ele>
        <time>2026-03-26T00:13:11Z</time>
      </trkpt>
      <trkpt lat="50.9991538" lon="4.2725605">
        <ele>0.00000</ele>
        <time>2026-03-26T00:13:12Z</time>
      </trkpt>
      <trkpt lat="50.9990231" lon="4.2723892">
        <ele>0.00000</ele>
        <time>2026-03-26T00:13:14Z</time>
      </trkpt>
      <trkpt lat="50.9988169" lon="4.2713962">
        <ele>0.00000</ele>
        <time>2026-03-26T00:13:20Z</time>
      </trkpt>
      <trkpt lat="50.9987421" lon="4.2713731">
        <ele>0.00000</ele>
        <time>2026-03-26T00:13:21Z</time>
      </trkpt>
      <trkpt lat="50.9982913" lon="4.2715491">
        <ele>0.00000</ele>
        <time>2026-03-26T00:13:25Z</time>
      </trkpt>
      <trkpt lat="50.9981245" lon="4.2715037">
        <ele>0.00000</ele>
        <time>2026-03-26T00:13:27Z</time>
      </trkpt>
      <trkpt lat="50.9975164" lon="4.2717397">
        <ele>0.00000</ele>
        <time>2026-03-26T00:13:33Z</time>
      </trkpt>
      <trkpt lat="50.9971519" lon="4.2716002">
        <ele>0.00000</ele>
        <time>2026-03-26T00:13:36Z</time>
      </trkpt>
      <trkpt lat="50.9966953" lon="4.2711812">
        <ele>0.00000</ele>
        <time>2026-03-26T00:13:41Z</time>
      </trkpt>
      <trkpt lat="50.9965142" lon="4.2709831">
        <ele>0.00000</ele>
        <time>2026-03-26T00:13:43Z</time>
      </trkpt>
      <trkpt lat="50.9964515" lon="4.2702155">
        <ele>0.00000</ele>
        <time>2026-03-26T00:13:48Z</time>
      </trkpt>
      <trkpt lat="50.9962947" lon="4.2687835">
        <ele>0.00000</ele>
        <time>2026-03-26T00:13:57Z</time>
      </trkpt>
      <trkpt lat="50.9962002" lon="4.2680196">
        <ele>0.00000</ele>
        <time>2026-03-26T00:14:01Z</time>
      </trkpt>
      <trkpt lat="50.9965967" lon="4.2678399">
        <ele>0.00000</ele>
        <time>2026-03-26T00:14:05Z</time>
      </trkpt>
      <trkpt lat="50.9968938" lon="4.2677476">
        <ele>0.00000</ele>
        <time>2026-03-26T00:14:08Z</time>
      </trkpt>
      <trkpt lat="50.9980837" lon="4.2681944">
        <ele>0.00000</ele>
        <time>2026-03-26T00:14:20Z</time>
      </trkpt>
      <trkpt lat="50.9982365" lon="4.2682404">
        <ele>0.00000</ele>
        <time>2026-03-26T00:14:21Z</time>
      </trkpt>
      <trkpt lat="50.9983876" lon="4.2682486">
        <ele>0.00000</ele>
        <time>2026-03-26T00:14:22Z</time>
      </trkpt>
      <trkpt lat="50.9975513" lon="4.2642188">
        <ele>0.00000</ele>
        <time>2026-03-26T00:14:48Z</time>
      </trkpt>
      <trkpt lat="50.9983103" lon="4.2636749">
        <ele>0.00000</ele>
        <time>2026-03-26T00:14:56Z</time>
      </trkpt>
      <trkpt lat="50.9984701" lon="4.2635215">
        <ele>0.00000</ele>
        <time>2026-03-26T00:14:57Z</time>
      </trkpt>
      <trkpt lat="50.9987437" lon="4.2629944">
        <ele>0.00000</ele>
        <time>2026-03-26T00:15:01Z</time>
      </trkpt>
      <trkpt lat="50.999207" lon="4.2611998">
        <ele>0.00000</ele>
        <time>2026-03-26T00:15:13Z</time>
      </trkpt>
      <trkpt lat="50.9993095" lon="4.2611282">
        <ele>0.00000</ele>
        <time>2026-03-26T00:15:14Z</time>
      </trkpt>
      <trkpt lat="51.0005724" lon="4.2617503">
        <ele>0.00000</ele>
        <time>2026-03-26T00:15:27Z</time>
      </trkpt>
      <trkpt lat="51.0012968" lon="4.2620452">
        <ele>0.00000</ele>
        <time>2026-03-26T00:15:34Z</time>
      </trkpt>
      <trkpt lat="51.0023473" lon="4.2623866">
        <ele>0.00000</ele>
        <time>2026-03-26T00:15:44Z</time>
      </trkpt>
      <trkpt lat="51.0026073" lon="4.2611825">
        <ele>0.00000</ele>
        <time>2026-03-26T00:15:51Z</time>
      </trkpt>
      <trkpt lat="51.0025296" lon="4.2607042">
        <ele>0.00000</ele>
        <time>2026-03-26T00:15:54Z</time>
      </trkpt>
      <trkpt lat="51.0023303" lon="4.2603886">
        <ele>0.00000</ele>
        <time>2026-03-26T00:15:57Z</time>
      </trkpt>
      <trkpt lat="51.0021128" lon="4.2599852">
        <ele>0.00000</ele>
        <time>2026-03-26T00:16:00Z</time>
      </trkpt>
      <trkpt lat="51.0019693" lon="4.2595971">
        <ele>0.00000</ele>
        <time>2026-03-26T00:16:03Z</time>
      </trkpt>
      <trkpt lat="51.0018749" lon="4.2591515">
        <ele>0.00000</ele>
        <time>2026-03-26T00:16:06Z</time>
      </trkpt>
      <trkpt lat="51.0018486" lon="4.2586237">
        <ele>0.00000</ele>
        <time>2026-03-26T00:16:09Z</time>
      </trkpt>
      <trkpt lat="51.002028" lon="4.2576528">
        <ele>0.00000</ele>
        <time>2026-03-26T00:16:15Z</time>
      </trkpt>
      <trkpt lat="51.0021092" lon="4.2567616">
        <ele>0.00000</ele>
        <time>2026-03-26T00:16:20Z</time>
      </trkpt>
      <trkpt lat="51.0028402" lon="4.2567393">
        <ele>0.00000</ele>
        <time>2026-03-26T00:16:27Z</time>
      </trkpt>
      <trkpt lat="51.0030339" lon="4.2563784">
        <ele>0.00000</ele>
        <time>2026-03-26T00:16:30Z</time>
      </trkpt>
      <trkpt lat="51.0032819" lon="4.2561486">
        <ele>0.00000</ele>
        <time>2026-03-26T00:16:33Z</time>
      </trkpt>
      <trkpt lat="51.0039118" lon="4.2558312">
        <ele>0.00000</ele>
        <time>2026-03-26T00:16:39Z</time>
      </trkpt>
      <trkpt lat="51.0042699" lon="4.255573">
        <ele>0.00000</ele>
        <time>2026-03-26T00:16:43Z</time>
      </trkpt>
      <trkpt lat="51.0047834" lon="4.2550803">
        <ele>0.00000</ele>
        <time>2026-03-26T00:16:48Z</time>
      </trkpt>
      <trkpt lat="51.0052201" lon="4.2545966">
        <ele>0.00000</ele>
        <time>2026-03-26T00:16:53Z</time>
      </trkpt>
      <trkpt lat="51.005572" lon="4.2541444">
        <ele>0.00000</ele>
        <time>2026-03-26T00:16:58Z</time>
      </trkpt>
      <trkpt lat="51.006392" lon="4.2531325">
        <ele>0.00000</ele>
        <time>2026-03-26T00:17:08Z</time>
      </trkpt>
      <trkpt lat="51.0065478" lon="4.2528754">
        <ele>0.00000</ele>
        <time>2026-03-26T00:17:10Z</time>
      </trkpt>
      <trkpt lat="51.0075356" lon="4.2496366">
        <ele>0.00000</ele>
        <time>2026-03-26T00:17:31Z</time>
      </trkpt>
      <trkpt lat="51.0076636" lon="4.2493215">
        <ele>0.00000</ele>
        <time>2026-03-26T00:17:33Z</time>
      </trkpt>
      <trkpt lat="51.007449" lon="4.2487369">
        <ele>0.00000</ele>
        <time>2026-03-26T00:17:37Z</time>
      </trkpt>
      <trkpt lat="51.0086842" lon="4.2440164">
        <ele>0.00000</ele>
        <time>2026-03-26T00:18:08Z</time>
      </trkpt>
      <trkpt lat="51.007052" lon="4.2428435">
        <ele>0.00000</ele>
        <time>2026-03-26T00:18:25Z</time>
      </trkpt>
      <trkpt lat="51.0060205" lon="4.2418504">
        <ele>0.00000</ele>
        <time>2026-03-26T00:18:36Z</time>
      </trkpt>
      <trkpt lat="51.004666" lon="4.2405292">
        <ele>0.00000</ele>
        <time>2026-03-26T00:18:51Z</time>
      </trkpt>
      <trkpt lat="51.0025531" lon="4.2383301">
        <ele>0.00000</ele>
        <time>2026-03-26T00:19:15Z</time>
      </trkpt>
      <trkpt lat="51.0027085" lon="4.2380941">
        <ele>0.00000</ele>
        <time>2026-03-26T00:19:17Z</time>
      </trkpt>
      <trkpt lat="51.0026139" lon="4.2378581">
        <ele>0.00000</ele>
        <time>2026-03-26T00:19:19Z</time>
      </trkpt>
      <trkpt lat="51.0009933" lon="4.2349184">
        <ele>0.00000</ele>
        <time>2026-03-26T00:19:42Z</time>
      </trkpt>
      <trkpt lat="51.0009055" lon="4.2348111">
        <ele>0.00000</ele>
        <time>2026-03-26T00:19:43Z</time>
      </trkpt>
      <trkpt lat="51.0008177" lon="4.2347896">
        <ele>0.00000</ele>
        <time>2026-03-26T00:19:44Z</time>
      </trkpt>
      <trkpt lat="51.0007298" lon="4.234854">
        <ele>0.00000</ele>
        <time>2026-03-26T00:19:45Z</time>
      </trkpt>
      <trkpt lat="50.9957217" lon="4.2398542">
        <ele>0.00000</ele>
        <time>2026-03-26T00:20:41Z</time>
      </trkpt>
      <trkpt lat="50.9950948" lon="4.2411966">
        <ele>0.00000</ele>
        <time>2026-03-26T00:20:51Z</time>
      </trkpt>
      <trkpt lat="50.9943318" lon="4.2422964">
        <ele>0.00000</ele>
        <time>2026-03-26T00:21:01Z</time>
      </trkpt>
      <trkpt lat="50.9941202" lon="4.2424929">
        <ele>0.00000</ele>
        <time>2026-03-26T00:21:03Z</time>
      </trkpt>
      <trkpt lat="50.9938725" lon="4.2417796">
        <ele>0.00000</ele>
        <time>2026-03-26T00:21:08Z</time>
      </trkpt>
      <trkpt lat="50.9935591" lon="4.2410169">
        <ele>0.00000</ele>
        <time>2026-03-26T00:21:13Z</time>
      </trkpt>
      <trkpt lat="50.9934458" lon="4.2405506">
        <ele>0.00000</ele>
        <time>2026-03-26T00:21:16Z</time>
      </trkpt>
      <trkpt lat="50.9930379" lon="4.2397227">
        <ele>0.00000</ele>
        <time>2026-03-26T00:21:23Z</time>
      </trkpt>
      <trkpt lat="50.9927541" lon="4.2384031">
        <ele>0.00000</ele>
        <time>2026-03-26T00:21:31Z</time>
      </trkpt>
      <trkpt lat="50.9923168" lon="4.2374561">
        <ele>0.00000</ele>
        <time>2026-03-26T00:21:38Z</time>
      </trkpt>
      <trkpt lat="50.9935358" lon="4.2349141">
        <ele>0.00000</ele>
        <time>2026-03-26T00:21:57Z</time>
      </trkpt>
      <trkpt lat="50.9937824" lon="4.2346394">
        <ele>0.00000</ele>
        <time>2026-03-26T00:22:00Z</time>
      </trkpt>
      <trkpt lat="50.9941179" lon="4.2344224">
        <ele>0.00000</ele>
        <time>2026-03-26T00:22:03Z</time>
      </trkpt>
      <trkpt lat="50.9944878" lon="4.2341267">
        <ele>0.00000</ele>
        <time>2026-03-26T00:22:07Z</time>
      </trkpt>
      <trkpt lat="50.9947263" lon="4.2338634">
        <ele>0.00000</ele>
        <time>2026-03-26T00:22:10Z</time>
      </trkpt>
      <trkpt lat="50.9957079" lon="4.2324829">
        <ele>0.00000</ele>
        <time>2026-03-26T00:22:22Z</time>
      </trkpt>
      <trkpt lat="50.9962176" lon="4.2320479">
        <ele>0.00000</ele>
        <time>2026-03-26T00:22:28Z</time>
      </trkpt>
      <trkpt lat="50.9963469" lon="4.2318812">
        <ele>0.00000</ele>
        <time>2026-03-26T00:22:29Z</time>
      </trkpt>
      <trkpt lat="50.9977061" lon="4.230026">
        <ele>0.00000</ele>
        <time>2026-03-26T00:22:46Z</time>
      </trkpt>
      <trkpt lat="50.9984303" lon="4.229237">
        <ele>0.00000</ele>
        <time>2026-03-26T00:22:55Z</time>
      </trkpt>
      <trkpt lat="50.9984934" lon="4.2290746">
        <ele>0.00000</ele>
        <time>2026-03-26T00:22:56Z</time>
      </trkpt>
      <trkpt lat="50.9982466" lon="4.22876">
        <ele>0.00000</ele>
        <time>2026-03-26T00:22:59Z</time>
      </trkpt>
      <trkpt lat="50.9977128" lon="4.2278802">
        <ele>0.00000</ele>
        <time>2026-03-26T00:23:06Z</time>
      </trkpt>
      <trkpt lat="50.9972061" lon="4.2275369">
        <ele>0.00000</ele>
        <time>2026-03-26T00:23:11Z</time>
      </trkpt>
      <trkpt lat="50.9968724" lon="4.2274214">
        <ele>0.00000</ele>
        <time>2026-03-26T00:23:15Z</time>
      </trkpt>
      <trkpt lat="50.9965862" lon="4.2272976">
        <ele>0.00000</ele>
        <time>2026-03-26T00:23:17Z</time>
      </trkpt>
      <trkpt lat="50.9964295" lon="4.227097">
        <ele>0.00000</ele>
        <time>2026-03-26T00:23:19Z</time>
      </trkpt>
      <trkpt lat="50.9959542" lon="4.226322">
        <ele>0.00000</ele>
        <time>2026-03-26T00:23:26Z</time>
      </trkpt>
      <trkpt lat="50.9962423" lon="4.2259653">
        <ele>0.00000</ele>
        <time>2026-03-26T00:23:29Z</time>
      </trkpt>
      <trkpt lat="50.9980445" lon="4.2238391">
        <ele>0.00000</ele>
        <time>2026-03-26T00:23:51Z</time>
      </trkpt>
      <trkpt lat="50.9970985" lon="4.222827">
        <ele>0.00000</ele>
        <time>2026-03-26T00:24:01Z</time>
      </trkpt>
      <trkpt lat="50.9957876" lon="4.2220438">
        <ele>0.00000</ele>
        <time>2026-03-26T00:24:15Z</time>
      </trkpt>
      <trkpt lat="50.9950931" lon="4.2210352">
        <ele>0.00000</ele>
        <time>2026-03-26T00:24:23Z</time>
      </trkpt>
      <trkpt lat="50.9947012" lon="4.2202628">
        <ele>0.00000</ele>
        <time>2026-03-26T00:24:29Z</time>
      </trkpt>
      <trkpt lat="50.9946471" lon="4.220016">
        <ele>0.00000</ele>
        <time>2026-03-26T00:24:31Z</time>
      </trkpt>
      <trkpt lat="50.9946471" lon="4.219147">
        <ele>0.00000</ele>
        <time>2026-03-26T00:24:36Z</time>
      </trkpt>
      <trkpt lat="50.9947147" lon="4.2190289">
        <ele>0.00000</ele>
        <time>2026-03-26T00:24:37Z</time>
      </trkpt>
      <trkpt lat="50.9959565" lon="4.2178263">
        <ele>0.00000</ele>
        <time>2026-03-26T00:24:51Z</time>
      </trkpt>
      <trkpt lat="50.9965824" lon="4.2174496">
        <ele>0.00000</ele>
        <time>2026-03-26T00:24:57Z</time>
      </trkpt>
      <trkpt lat="50.9971759" lon="4.2173">
        <ele>0.00000</ele>
        <time>2026-03-26T00:25:03Z</time>
      </trkpt>
      <trkpt lat="50.9974072" lon="4.2171729">
        <ele>0.00000</ele>
        <time>2026-03-26T00:25:05Z</time>
      </trkpt>
      <trkpt lat="50.9978194" lon="4.2169476">
        <ele>0.00000</ele>
        <time>2026-03-26T00:25:09Z</time>
      </trkpt>
      <trkpt lat="50.9980566" lon="4.2167511">
        <ele>0.00000</ele>
        <time>2026-03-26T00:25:12Z</time>
      </trkpt>
      <trkpt lat="50.9984428" lon="4.2168261">
        <ele>0.00000</ele>
        <time>2026-03-26T00:25:16Z</time>
      </trkpt>
      <trkpt lat="50.9985086" lon="4.2167866">
        <ele>0.00000</ele>
        <time>2026-03-26T00:25:16Z</time>
      </trkpt>
      <trkpt lat="50.9987579" lon="4.2171225">
        <ele>0.00000</ele>
        <time>2026-03-26T00:25:19Z</time>
      </trkpt>
      <trkpt lat="50.9996528" lon="4.2164713">
        <ele>0.00000</ele>
        <time>2026-03-26T00:25:29Z</time>
      </trkpt>
      <trkpt lat="51.0003333" lon="4.2161536">
        <ele>0.00000</ele>
        <time>2026-03-26T00:25:35Z</time>
      </trkpt>
      <trkpt lat="51.0005617" lon="4.2188766">
        <ele>0.00000</ele>
        <time>2026-03-26T00:25:52Z</time>
      </trkpt>
      <trkpt lat="51.0008562" lon="4.2187674">
        <ele>0.00000</ele>
        <time>2026-03-26T00:25:55Z</time>
      </trkpt>
      <trkpt lat="51.0015216" lon="4.2179775">
        <ele>0.00000</ele>
        <time>2026-03-26T00:26:02Z</time>
      </trkpt>
      <trkpt lat="51.0022798" lon="4.2173767">
        <ele>0.00000</ele>
        <time>2026-03-26T00:26:11Z</time>
      </trkpt>
      <trkpt lat="51.0044489" lon="4.2189453">
        <ele>0.00000</ele>
        <time>2026-03-26T00:26:33Z</time>
      </trkpt>
      <trkpt lat="51.0051686" lon="4.2174178">
        <ele>0.00000</ele>
        <time>2026-03-26T00:26:44Z</time>
      </trkpt>
      <trkpt lat="51.0043759" lon="4.215238">
        <ele>0.00000</ele>
        <time>2026-03-26T00:26:59Z</time>
      </trkpt>
      <trkpt lat="51.0042146" lon="4.2145821">
        <ele>0.00000</ele>
        <time>2026-03-26T00:27:04Z</time>
      </trkpt>
      <trkpt lat="51.0036707" lon="4.2146295">
        <ele>0.00000</ele>
        <time>2026-03-26T00:27:09Z</time>
      </trkpt>
      <trkpt lat="51.0033714" lon="4.2143297">
        <ele>0.00000</ele>
        <time>2026-03-26T00:27:12Z</time>
      </trkpt>
      <trkpt lat="51.0028067" lon="4.2138147">
        <ele>0.00000</ele>
        <time>2026-03-26T00:27:18Z</time>
      </trkpt>
      <trkpt lat="51.0027106" lon="4.2130703">
        <ele>0.00000</ele>
        <time>2026-03-26T00:27:23Z</time>
      </trkpt>
      <trkpt lat="51.0026036" lon="4.2117218">
        <ele>0.00000</ele>
        <time>2026-03-26T00:27:31Z</time>
      </trkpt>
      <trkpt lat="51.0031851" lon="4.2117977">
        <ele>0.00000</ele>
        <time>2026-03-26T00:27:36Z</time>
      </trkpt>
      <trkpt lat="51.0036309" lon="4.2113042">
        <ele>0.00000</ele>
        <time>2026-03-26T00:27:42Z</time>
      </trkpt>
      <trkpt lat="51.003685" lon="4.2109394">
        <ele>0.00000</ele>
        <time>2026-03-26T00:27:44Z</time>
      </trkpt>
      <trkpt lat="51.0040734" lon="4.2116315">
        <ele>0.00000</ele>
        <time>2026-03-26T00:27:49Z</time>
      </trkpt>
      <trkpt lat="51.0044634" lon="4.2112216">
        <ele>0.00000</ele>
        <time>2026-03-26T00:27:54Z</time>
      </trkpt>
      <trkpt lat="51.0048875" lon="4.210639">
        <ele>0.00000</ele>
        <time>2026-03-26T00:27:59Z</time>
      </trkpt>
      <trkpt lat="51.0049497" lon="4.2104315">
        <ele>0.00000</ele>
        <time>2026-03-26T00:28:01Z</time>
      </trkpt>
      <trkpt lat="51.0050818" lon="4.210299">
        <ele>0.00000</ele>
        <time>2026-03-26T00:28:02Z</time>
      </trkpt>
      <trkpt lat="51.0052388" lon="4.210227">
        <ele>0.00000</ele>
        <time>2026-03-26T00:28:04Z</time>
      </trkpt>
      <trkpt lat="51.0056306" lon="4.2102485">
        <ele>0.00000</ele>
        <time>2026-03-26T00:28:07Z</time>
      </trkpt>
      <trkpt lat="51.0060804" lon="4.2100172">
        <ele>0.00000</ele>
        <time>2026-03-26T00:28:12Z</time>
      </trkpt>
      <trkpt lat="51.0062251" lon="4.2100124">
        <ele>0.00000</ele>
        <time>2026-03-26T00:28:13Z</time>
      </trkpt>
      <trkpt lat="51.0063586" lon="4.2099713">
        <ele>0.00000</ele>
        <time>2026-03-26T00:28:14Z</time>
      </trkpt>
      <trkpt lat="51.0065486" lon="4.2099693">
        <ele>0.00000</ele>
        <time>2026-03-26T00:28:16Z</time>
      </trkpt>
      <trkpt lat="51.0066828" lon="4.2101499">
        <ele>0.00000</ele>
        <time>2026-03-26T00:28:18Z</time>
      </trkpt>
      <trkpt lat="51.0066556" lon="4.2108447">
        <ele>0.00000</ele>
        <time>2026-03-26T00:28:22Z</time>
      </trkpt>
      <trkpt lat="51.0065494" lon="4.2110209">
        <ele>0.00000</ele>
        <time>2026-03-26T00:28:23Z</time>
      </trkpt>
      <trkpt lat="51.0065359" lon="4.2113428">
        <ele>0.00000</ele>
        <time>2026-03-26T00:28:25Z</time>
      </trkpt>
      <trkpt lat="51.006698" lon="4.2118363">
        <ele>0.00000</ele>
        <time>2026-03-26T00:28:29Z</time>
      </trkpt>
      <trkpt lat="51.0064007" lon="4.2124157">
        <ele>0.00000</ele>
        <time>2026-03-26T00:28:33Z</time>
      </trkpt>
      <trkpt lat="51.006063" lon="4.2125874">
        <ele>0.00000</ele>
        <time>2026-03-26T00:28:37Z</time>
      </trkpt>
      <trkpt lat="51.0051037" lon="4.2134242">
        <ele>0.00000</ele>
        <time>2026-03-26T00:28:47Z</time>
      </trkpt>
      <trkpt lat="51.0086408" lon="4.2196083">
        <ele>0.00000</ele>
        <time>2026-03-26T00:29:37Z</time>
      </trkpt>
      <trkpt lat="51.0092553" lon="4.2182837">
        <ele>0.00000</ele>
        <time>2026-03-26T00:29:46Z</time>
      </trkpt>
      <trkpt lat="51.0103666" lon="4.2150945">
        <ele>0.00000</ele>
        <time>2026-03-26T00:30:08Z</time>
      </trkpt>
      <trkpt lat="51.011099" lon="4.2131523">
        <ele>0.00000</ele>
        <time>2026-03-26T00:30:22Z</time>
      </trkpt>
      <trkpt lat="51.0111914" lon="4.2127204">
        <ele>0.00000</ele>
        <time>2026-03-26T00:30:24Z</time>
      </trkpt>
      <trkpt lat="51.0111104" lon="4.2107463">
        <ele>0.00000</ele>
        <time>2026-03-26T00:30:36Z</time>
      </trkpt>
      <trkpt lat="51.0113026" lon="4.2093515">
        <ele>0.00000</ele>
        <time>2026-03-26T00:30:45Z</time>
      </trkpt>
      <trkpt lat="51.0115032" lon="4.208811">
        <ele>0.00000</ele>
        <time>2026-03-26T00:30:48Z</time>
      </trkpt>
      <trkpt lat="51.0127734" lon="4.2070774">
        <ele>0.00000</ele>
        <time>2026-03-26T00:31:04Z</time>
      </trkpt>
      <trkpt lat="51.0129006" lon="4.2068785">
        <ele>0.00000</ele>
        <time>2026-03-26T00:31:06Z</time>
      </trkpt>
      <trkpt lat="51.0130445" lon="4.206237">
        <ele>0.00000</ele>
        <time>2026-03-26T00:31:10Z</time>
      </trkpt>
      <trkpt lat="51.0131357" lon="4.2059634">
        <ele>0.00000</ele>
        <time>2026-03-26T00:31:12Z</time>
      </trkpt>
      <trkpt lat="51.0132857" lon="4.2056979">
        <ele>0.00000</ele>
        <time>2026-03-26T00:31:14Z</time>
      </trkpt>
      <trkpt lat="51.0138057" lon="4.2053454">
        <ele>0.00000</ele>
        <time>2026-03-26T00:31:19Z</time>
      </trkpt>
      <trkpt lat="51.0138395" lon="4.2052381">
        <ele>0.00000</ele>
        <time>2026-03-26T00:31:20Z</time>
      </trkpt>
      <trkpt lat="51.0134571" lon="4.2031449">
        <ele>0.00000</ele>
        <time>2026-03-26T00:31:33Z</time>
      </trkpt>
      <trkpt lat="51.0133761" lon="4.2020719">
        <ele>0.00000</ele>
        <time>2026-03-26T00:31:40Z</time>
      </trkpt>
      <trkpt lat="51.0135953" lon="4.2018038">
        <ele>0.00000</ele>
        <time>2026-03-26T00:31:42Z</time>
      </trkpt>
      <trkpt lat="51.0135452" lon="4.2015337">
        <ele>0.00000</ele>
        <time>2026-03-26T00:31:44Z</time>
      </trkpt>
      <trkpt lat="51.013536" lon="4.2013572">
        <ele>0.00000</ele>
        <time>2026-03-26T00:31:45Z</time>
      </trkpt>
      <trkpt lat="51.013526" lon="4.2011937">
        <ele>0.00000</ele>
        <time>2026-03-26T00:31:46Z</time>
      </trkpt>
      <trkpt lat="51.013499" lon="4.201088">
        <ele>0.00000</ele>
        <time>2026-03-26T00:31:47Z</time>
      </trkpt>
      <trkpt lat="51.0134824" lon="4.2008946">
        <ele>0.00000</ele>
        <time>2026-03-26T00:31:48Z</time>
      </trkpt>
      <trkpt lat="51.0136454" lon="4.200889">
        <ele>0.00000</ele>
        <time>2026-03-26T00:31:49Z</time>
      </trkpt>
      <trkpt lat="51.0136541" lon="4.2010817">
        <ele>0.00000</ele>
        <time>2026-03-26T00:31:50Z</time>
      </trkpt>
      <trkpt lat="51.0135837" lon="4.2011982">
        <ele>0.00000</ele>
        <time>2026-03-26T00:31:51Z</time>
      </trkpt>
      <trkpt lat="51.0135797" lon="4.2013449">
        <ele>0.00000</ele>
        <time>2026-03-26T00:31:52Z</time>
      </trkpt>
      <trkpt lat="51.013574" lon="4.2015869">
        <ele>0.00000</ele>
        <time>2026-03-26T00:31:54Z</time>
      </trkpt>
      <trkpt lat="51.0136279" lon="4.2018447">
        <ele>0.00000</ele>
        <time>2026-03-26T00:31:55Z</time>
      </trkpt>
      <trkpt lat="51.013428" lon="4.2020745">
        <ele>0.00000</ele>
        <time>2026-03-26T00:31:58Z</time>
      </trkpt>
      <trkpt lat="51.0135034" lon="4.2031503">
        <ele>0.00000</ele>
        <time>2026-03-26T00:32:04Z</time>
      </trkpt>
      <trkpt lat="51.0138954" lon="4.2052659">
        <ele>0.00000</ele>
        <time>2026-03-26T00:32:17Z</time>
      </trkpt>
      <trkpt lat="51.0139366" lon="4.2053193">
        <ele>0.00000</ele>
        <time>2026-03-26T00:32:18Z</time>
      </trkpt>
      <trkpt lat="51.0139824" lon="4.2054502">
        <ele>0.00000</ele>
        <time>2026-03-26T00:32:19Z</time>
      </trkpt>
      <trkpt lat="51.0140634" lon="4.2057547">
        <ele>0.00000</ele>
        <time>2026-03-26T00:32:21Z</time>
      </trkpt>
      <trkpt lat="51.0141844" lon="4.2072848">
        <ele>0.00000</ele>
        <time>2026-03-26T00:32:30Z</time>
      </trkpt>
      <trkpt lat="51.0149342" lon="4.2078248">
        <ele>0.00000</ele>
        <time>2026-03-26T00:32:38Z</time>
      </trkpt>
      <trkpt lat="51.0156218" lon="4.2079341">
        <ele>0.00000</ele>
        <time>2026-03-26T00:32:44Z</time>
      </trkpt>
      <trkpt lat="51.0158138" lon="4.2054857">
        <ele>0.00000</ele>
        <time>2026-03-26T00:32:59Z</time>
      </trkpt>
      <trkpt lat="51.0158801" lon="4.2055034">
        <ele>0.00000</ele>
        <time>2026-03-26T00:32:59Z</time>
      </trkpt>
      <trkpt lat="51.0148642" lon="4.2183906">
        <ele>0.00000</ele>
        <time>2026-03-26T00:34:17Z</time>
      </trkpt>
      <trkpt lat="51.0148743" lon="4.2184871">
        <ele>0.00000</ele>
        <time>2026-03-26T00:34:17Z</time>
      </trkpt>
      <trkpt lat="51.0148473" lon="4.2188787">
        <ele>0.00000</ele>
        <time>2026-03-26T00:34:20Z</time>
      </trkpt>
      <trkpt lat="51.0150676" lon="4.2189043">
        <ele>0.00000</ele>
        <time>2026-03-26T00:34:22Z</time>
      </trkpt>
      <trkpt lat="51.01529" lon="4.2164256">
        <ele>0.00000</ele>
        <time>2026-03-26T00:34:37Z</time>
      </trkpt>
      <trkpt lat="51.015745" lon="4.2141581">
        <ele>0.00000</ele>
        <time>2026-03-26T00:34:51Z</time>
      </trkpt>
      <trkpt lat="51.0159569" lon="4.2129374">
        <ele>0.00000</ele>
        <time>2026-03-26T00:34:59Z</time>
      </trkpt>
      <trkpt lat="51.0164268" lon="4.2113042">
        <ele>0.00000</ele>
        <time>2026-03-26T00:35:09Z</time>
      </trkpt>
      <trkpt lat="51.0164741" lon="4.2110091">
        <ele>0.00000</ele>
        <time>2026-03-26T00:35:11Z</time>
      </trkpt>
      <trkpt lat="51.0164393" lon="4.2085917">
        <ele>0.00000</ele>
        <time>2026-03-26T00:35:25Z</time>
      </trkpt>
      <trkpt lat="51.0167026" lon="4.2051153">
        <ele>0.00000</ele>
        <time>2026-03-26T00:35:46Z</time>
      </trkpt>
      <trkpt lat="51.0182532" lon="4.2056192">
        <ele>0.00000</ele>
        <time>2026-03-26T00:36:01Z</time>
      </trkpt>
      <trkpt lat="51.0183581" lon="4.2056276">
        <ele>0.00000</ele>
        <time>2026-03-26T00:36:02Z</time>
      </trkpt>
      <trkpt lat="51.0186331" lon="4.2057268">
        <ele>0.00000</ele>
        <time>2026-03-26T00:36:05Z</time>
      </trkpt>
      <trkpt lat="51.0185875" lon="4.2070107">
        <ele>0.00000</ele>
        <time>2026-03-26T00:36:13Z</time>
      </trkpt>
      <trkpt lat="51.0185364" lon="4.2076984">
        <ele>0.00000</ele>
        <time>2026-03-26T00:36:17Z</time>
      </trkpt>
      <trkpt lat="51.0184864" lon="4.2079139">
        <ele>0.00000</ele>
        <time>2026-03-26T00:36:18Z</time>
      </trkpt>
      <trkpt lat="51.0184283" lon="4.2080979">
        <ele>0.00000</ele>
        <time>2026-03-26T00:36:19Z</time>
      </trkpt>
      <trkpt lat="51.0181906" lon="4.2087602">
        <ele>0.00000</ele>
        <time>2026-03-26T00:36:24Z</time>
      </trkpt>
      <trkpt lat="51.017957" lon="4.2097958">
        <ele>0.00000</ele>
        <time>2026-03-26T00:36:31Z</time>
      </trkpt>
      <trkpt lat="51.017961" lon="4.209954">
        <ele>0.00000</ele>
        <time>2026-03-26T00:36:31Z</time>
      </trkpt>
      <trkpt lat="51.0180098" lon="4.210025">
        <ele>0.00000</ele>
        <time>2026-03-26T00:36:32Z</time>
      </trkpt>
      <trkpt lat="51.0187462" lon="4.2104247">
        <ele>0.00000</ele>
        <time>2026-03-26T00:36:39Z</time>
      </trkpt>
      <trkpt lat="51.0190147" lon="4.2105576">
        <ele>0.00000</ele>
        <time>2026-03-26T00:36:42Z</time>
      </trkpt>
      <trkpt lat="51.0190723" lon="4.2106171">
        <ele>0.00000</ele>
        <time>2026-03-26T00:36:43Z</time>
      </trkpt>
      <trkpt lat="51.0191401" lon="4.2107829">
        <ele>0.00000</ele>
        <time>2026-03-26T00:36:44Z</time>
      </trkpt>
      <trkpt lat="51.0193753" lon="4.2116212">
        <ele>0.00000</ele>
        <time>2026-03-26T00:36:49Z</time>
      </trkpt>
      <trkpt lat="51.0194216" lon="4.2122763">
        <ele>0.00000</ele>
        <time>2026-03-26T00:36:53Z</time>
      </trkpt>
      <trkpt lat="51.0194409" lon="4.2133582">
        <ele>0.00000</ele>
        <time>2026-03-26T00:37:00Z</time>
      </trkpt>
      <trkpt lat="51.0193799" lon="4.2140347">
        <ele>0.00000</ele>
        <time>2026-03-26T00:37:04Z</time>
      </trkpt>
      <trkpt lat="51.0194069" lon="4.2142439">
        <ele>0.00000</ele>
        <time>2026-03-26T00:37:05Z</time>
      </trkpt>
      <trkpt lat="51.0197546" lon="4.2152895">
        <ele>0.00000</ele>
        <time>2026-03-26T00:37:12Z</time>
      </trkpt>
      <trkpt lat="51.0197431" lon="4.215344">
        <ele>0.00000</ele>
        <time>2026-03-26T00:37:13Z</time>
      </trkpt>
      <trkpt lat="51.0189705" lon="4.2162396">
        <ele>0.00000</ele>
        <time>2026-03-26T00:37:22Z</time>
      </trkpt>
      <trkpt lat="51.0185934" lon="4.216969">
        <ele>0.00000</ele>
        <time>2026-03-26T00:37:27Z</time>
      </trkpt>
      <trkpt lat="51.0184549" lon="4.2171729">
        <ele>0.00000</ele>
        <time>2026-03-26T00:37:29Z</time>
      </trkpt>
      <trkpt lat="51.0182523" lon="4.2173713">
        <ele>0.00000</ele>
        <time>2026-03-26T00:37:31Z</time>
      </trkpt>
      <trkpt lat="51.0173029" lon="4.2181632">
        <ele>0.00000</ele>
        <time>2026-03-26T00:37:41Z</time>
      </trkpt>
      <trkpt lat="51.0167953" lon="4.2186307">
        <ele>0.00000</ele>
        <time>2026-03-26T00:37:47Z</time>
      </trkpt>
      <trkpt lat="51.0165522" lon="4.2189325">
        <ele>0.00000</ele>
        <time>2026-03-26T00:37:50Z</time>
      </trkpt>
      <trkpt lat="51.0162601" lon="4.219331">
        <ele>0.00000</ele>
        <time>2026-03-26T00:37:54Z</time>
      </trkpt>
      <trkpt lat="51.0150799" lon="4.2215127">
        <ele>0.00000</ele>
        <time>2026-03-26T00:38:11Z</time>
      </trkpt>
      <trkpt lat="51.0150222" lon="4.2216185">
        <ele>0.00000</ele>
        <time>2026-03-26T00:38:12Z</time>
      </trkpt>
      <trkpt lat="51.0148944" lon="4.2218703">
        <ele>0.00000</ele>
        <time>2026-03-26T00:38:13Z</time>
      </trkpt>
      <trkpt lat="51.0148355" lon="4.2220846">
        <ele>0.00000</ele>
        <time>2026-03-26T00:38:15Z</time>
      </trkpt>
      <trkpt lat="51.0147188" lon="4.2248078">
        <ele>0.00000</ele>
        <time>2026-03-26T00:38:31Z</time>
      </trkpt>
      <trkpt lat="51.0148418" lon="4.2247429">
        <ele>0.00000</ele>
        <time>2026-03-26T00:38:32Z</time>
      </trkpt>
      <trkpt lat="51.0161295" lon="4.223652">
        <ele>0.00000</ele>
        <time>2026-03-26T00:38:46Z</time>
      </trkpt>
      <trkpt lat="51.0171061" lon="4.2229664">
        <ele>0.00000</ele>
        <time>2026-03-26T00:38:56Z</time>
      </trkpt>
      <trkpt lat="51.0179323" lon="4.2222583">
        <ele>0.00000</ele>
        <time>2026-03-26T00:39:05Z</time>
      </trkpt>
      <trkpt lat="51.0187518" lon="4.2213249">
        <ele>0.00000</ele>
        <time>2026-03-26T00:39:15Z</time>
      </trkpt>
      <trkpt lat="51.0189534" lon="4.2212342">
        <ele>0.00000</ele>
        <time>2026-03-26T00:39:17Z</time>
      </trkpt>
      <trkpt lat="51.0193543" lon="4.2212168">
        <ele>0.00000</ele>
        <time>2026-03-26T00:39:20Z</time>
      </trkpt>
      <trkpt lat="51.0208697" lon="4.2209519">
        <ele>0.00000</ele>
        <time>2026-03-26T00:39:35Z</time>
      </trkpt>
      <trkpt lat="51.0212519" lon="4.2222754">
        <ele>0.00000</ele>
        <time>2026-03-26T00:39:44Z</time>
      </trkpt>
      <trkpt lat="51.0236593" lon="4.2193523">
        <ele>0.00000</ele>
        <time>2026-03-26T00:40:12Z</time>
      </trkpt>
      <trkpt lat="51.0243625" lon="4.2186885">
        <ele>0.00000</ele>
        <time>2026-03-26T00:40:20Z</time>
      </trkpt>
      <trkpt lat="51.024603" lon="4.2185349">
        <ele>0.00000</ele>
        <time>2026-03-26T00:40:22Z</time>
      </trkpt>
      <trkpt lat="51.0247266" lon="4.2184972">
        <ele>0.00000</ele>
        <time>2026-03-26T00:40:24Z</time>
      </trkpt>
      <trkpt lat="51.0252718" lon="4.219123">
        <ele>0.00000</ele>
        <time>2026-03-26T00:40:30Z</time>
      </trkpt>
      <trkpt lat="51.0252443" lon="4.2195584">
        <ele>0.00000</ele>
        <time>2026-03-26T00:40:33Z</time>
      </trkpt>
      <trkpt lat="51.0250953" lon="4.2207318">
        <ele>0.00000</ele>
        <time>2026-03-26T00:40:40Z</time>
      </trkpt>
      <trkpt lat="51.0248292" lon="4.2215291">
        <ele>0.00000</ele>
        <time>2026-03-26T00:40:45Z</time>
      </trkpt>
      <trkpt lat="51.0238509" lon="4.2228827">
        <ele>0.00000</ele>
        <time>2026-03-26T00:40:57Z</time>
      </trkpt>
      <trkpt lat="51.0237298" lon="4.2231075">
        <ele>0.00000</ele>
        <time>2026-03-26T00:40:59Z</time>
      </trkpt>
      <trkpt lat="51.023609" lon="4.2234414">
        <ele>0.00000</ele>
        <time>2026-03-26T00:41:02Z</time>
      </trkpt>
      <trkpt lat="51.0235684" lon="4.223759">
        <ele>0.00000</ele>
        <time>2026-03-26T00:41:03Z</time>
      </trkpt>
      <trkpt lat="51.0236301" lon="4.2250604">
        <ele>0.00000</ele>
        <time>2026-03-26T00:41:11Z</time>
      </trkpt>
      <trkpt lat="51.0237015" lon="4.2253942">
        <ele>0.00000</ele>
        <time>2026-03-26T00:41:13Z</time>
      </trkpt>
      <trkpt lat="51.0238375" lon="4.2266294">
        <ele>0.00000</ele>
        <time>2026-03-26T00:41:21Z</time>
      </trkpt>
      <trkpt lat="51.0239616" lon="4.227793">
        <ele>0.00000</ele>
        <time>2026-03-26T00:41:28Z</time>
      </trkpt>
      <trkpt lat="51.0240959" lon="4.229938">
        <ele>0.00000</ele>
        <time>2026-03-26T00:41:41Z</time>
      </trkpt>
      <trkpt lat="51.0240925" lon="4.2302706">
        <ele>0.00000</ele>
        <time>2026-03-26T00:41:43Z</time>
      </trkpt>
      <trkpt lat="51.0241172" lon="4.2304713">
        <ele>0.00000</ele>
        <time>2026-03-26T00:41:44Z</time>
      </trkpt>
      <trkpt lat="51.0244063" lon="4.2307832">
        <ele>0.00000</ele>
        <time>2026-03-26T00:41:47Z</time>
      </trkpt>
      <trkpt lat="51.024721" lon="4.2302184">
        <ele>0.00000</ele>
        <time>2026-03-26T00:41:52Z</time>
      </trkpt>
      <trkpt lat="51.0249434" lon="4.2299084">
        <ele>0.00000</ele>
        <time>2026-03-26T00:41:54Z</time>
      </trkpt>
      <trkpt lat="51.0264312" lon="4.2283578">
        <ele>0.00000</ele>
        <time>2026-03-26T00:42:11Z</time>
      </trkpt>
      <trkpt lat="51.0269519" lon="4.2285991">
        <ele>0.00000</ele>
        <time>2026-03-26T00:42:16Z</time>
      </trkpt>
      <trkpt lat="51.0269918" lon="4.2285782">
        <ele>0.00000</ele>
        <time>2026-03-26T00:42:17Z</time>
      </trkpt>
      <trkpt lat="51.0270879" lon="4.2286379">
        <ele>0.00000</ele>
        <time>2026-03-26T00:42:18Z</time>
      </trkpt>
      <trkpt lat="51.0276907" lon="4.2286581">
        <ele>0.00000</ele>
        <time>2026-03-26T00:42:24Z</time>
      </trkpt>
      <trkpt lat="51.027765" lon="4.2287332">
        <ele>0.00000</ele>
        <time>2026-03-26T00:42:24Z</time>
      </trkpt>
      <trkpt lat="51.0272711" lon="4.2301685">
        <ele>0.00000</ele>
        <time>2026-03-26T00:42:34Z</time>
      </trkpt>
      <trkpt lat="51.0272361" lon="4.2304176">
        <ele>0.00000</ele>
        <time>2026-03-26T00:42:36Z</time>
      </trkpt>
      <trkpt lat="51.0272784" lon="4.2318251">
        <ele>0.00000</ele>
        <time>2026-03-26T00:42:44Z</time>
      </trkpt>
      <trkpt lat="51.0273127" lon="4.2327787">
        <ele>0.00000</ele>
        <time>2026-03-26T00:42:50Z</time>
      </trkpt>
      <trkpt lat="51.0273609" lon="4.2336684">
        <ele>0.00000</ele>
        <time>2026-03-26T00:42:55Z</time>
      </trkpt>
      <trkpt lat="51.0275905" lon="4.2350021">
        <ele>0.00000</ele>
        <time>2026-03-26T00:43:03Z</time>
      </trkpt>
      <trkpt lat="51.0276386" lon="4.2351327">
        <ele>0.00000</ele>
        <time>2026-03-26T00:43:04Z</time>
      </trkpt>
      <trkpt lat="51.0277907" lon="4.2352717">
        <ele>0.00000</ele>
        <time>2026-03-26T00:43:06Z</time>
      </trkpt>
      <trkpt lat="51.0287044" lon="4.2361581">
        <ele>0.00000</ele>
        <time>2026-03-26T00:43:16Z</time>
      </trkpt>
      <trkpt lat="51.0288958" lon="4.2363571">
        <ele>0.00000</ele>
        <time>2026-03-26T00:43:18Z</time>
      </trkpt>
      <trkpt lat="51.028996" lon="4.2364424">
        <ele>0.00000</ele>
        <time>2026-03-26T00:43:19Z</time>
      </trkpt>
      <trkpt lat="51.0292558" lon="4.2365545">
        <ele>0.00000</ele>
        <time>2026-03-26T00:43:22Z</time>
      </trkpt>
      <trkpt lat="51.0296923" lon="4.2368602">
        <ele>0.00000</ele>
        <time>2026-03-26T00:43:26Z</time>
      </trkpt>
      <trkpt lat="51.0301305" lon="4.2368334">
        <ele>0.00000</ele>
        <time>2026-03-26T00:43:30Z</time>
      </trkpt>
      <trkpt lat="51.0303149" lon="4.2367783">
        <ele>0.00000</ele>
        <time>2026-03-26T00:43:32Z</time>
      </trkpt>
      <trkpt lat="51.0311149" lon="4.2360717">
        <ele>0.00000</ele>
        <time>2026-03-26T00:43:41Z</time>
      </trkpt>
      <trkpt lat="51.0319516" lon="4.2354012">
        <ele>0.00000</ele>
        <time>2026-03-26T00:43:50Z</time>
      </trkpt>
      <trkpt lat="51.0328114" lon="4.2350254">
        <ele>0.00000</ele>
        <time>2026-03-26T00:43:58Z</time>
      </trkpt>
      <trkpt lat="51.0342709" lon="4.2341545">
        <ele>0.00000</ele>
        <time>2026-03-26T00:44:13Z</time>
      </trkpt>
      <trkpt lat="51.0348931" lon="4.2360403">
        <ele>0.00000</ele>
        <time>2026-03-26T00:44:26Z</time>
      </trkpt>
      <trkpt lat="51.0354473" lon="4.2375333">
        <ele>0.00000</ele>
        <time>2026-03-26T00:44:36Z</time>
      </trkpt>
      <trkpt lat="51.0369562" lon="4.2405576">
        <ele>0.00000</ele>
        <time>2026-03-26T00:44:59Z</time>
      </trkpt>
      <trkpt lat="51.037663" lon="4.2404974">
        <ele>0.00000</ele>
        <time>2026-03-26T00:45:06Z</time>
      </trkpt>
      <trkpt lat="51.0379938" lon="4.2404866">
        <ele>0.00000</ele>
        <time>2026-03-26T00:45:09Z</time>
      </trkpt>
      <trkpt lat="51.0395409" lon="4.2398624">
        <ele>0.00000</ele>
        <time>2026-03-26T00:45:24Z</time>
      </trkpt>
      <trkpt lat="51.0409107" lon="4.2392668">
        <ele>0.00000</ele>
        <time>2026-03-26T00:45:37Z</time>
      </trkpt>
      <trkpt lat="51.0409883" lon="4.2392828">
        <ele>0.00000</ele>
        <time>2026-03-26T00:45:38Z</time>
      </trkpt>
      <trkpt lat="51.0410558" lon="4.2393472">
        <ele>0.00000</ele>
        <time>2026-03-26T00:45:39Z</time>
      </trkpt>
      <trkpt lat="51.0411608" lon="4.2398804">
        <ele>0.00000</ele>
        <time>2026-03-26T00:45:42Z</time>
      </trkpt>
      <trkpt lat="51.0413123" lon="4.2401479">
        <ele>0.00000</ele>
        <time>2026-03-26T00:45:44Z</time>
      </trkpt>
      <trkpt lat="51.0414395" lon="4.2402949">
        <ele>0.00000</ele>
        <time>2026-03-26T00:45:46Z</time>
      </trkpt>
      <trkpt lat="51.0416106" lon="4.2404096">
        <ele>0.00000</ele>
        <time>2026-03-26T00:45:48Z</time>
      </trkpt>
      <trkpt lat="51.0418048" lon="4.2405134">
        <ele>0.00000</ele>
        <time>2026-03-26T00:45:50Z</time>
      </trkpt>
      <trkpt lat="51.0420849" lon="4.2407602">
        <ele>0.00000</ele>
        <time>2026-03-26T00:45:53Z</time>
      </trkpt>
      <trkpt lat="51.0429439" lon="4.2417685">
        <ele>0.00000</ele>
        <time>2026-03-26T00:46:03Z</time>
      </trkpt>
      <trkpt lat="51.0430266" lon="4.2420627">
        <ele>0.00000</ele>
        <time>2026-03-26T00:46:05Z</time>
      </trkpt>
      <trkpt lat="51.0423699" lon="4.2429521">
        <ele>0.00000</ele>
        <time>2026-03-26T00:46:13Z</time>
      </trkpt>
      <trkpt lat="51.0379726" lon="4.2406636">
        <ele>0.00000</ele>
        <time>2026-03-26T00:46:57Z</time>
      </trkpt>
      <trkpt lat="51.0379354" lon="4.2406958">
        <ele>0.00000</ele>
        <time>2026-03-26T00:46:57Z</time>
      </trkpt>
      <trkpt lat="51.0368746" lon="4.2411894">
        <ele>0.00000</ele>
        <time>2026-03-26T00:47:07Z</time>
      </trkpt>
      <trkpt lat="51.0369707" lon="4.242745">
        <ele>0.00000</ele>
        <time>2026-03-26T00:47:17Z</time>
      </trkpt>
      <trkpt lat="51.0368462" lon="4.2429221">
        <ele>0.00000</ele>
        <time>2026-03-26T00:47:18Z</time>
      </trkpt>
      <trkpt lat="51.031553" lon="4.2482275">
        <ele>0.00000</ele>
        <time>2026-03-26T00:48:18Z</time>
      </trkpt>
      <trkpt lat="51.0315969" lon="4.2501168">
        <ele>0.00000</ele>
        <time>2026-03-26T00:48:29Z</time>
      </trkpt>
      <trkpt lat="51.0316127" lon="4.2503671">
        <ele>0.00000</ele>
        <time>2026-03-26T00:48:30Z</time>
      </trkpt>
      <trkpt lat="51.0316336" lon="4.2505713">
        <ele>0.00000</ele>
        <time>2026-03-26T00:48:32Z</time>
      </trkpt>
      <trkpt lat="51.0316218" lon="4.251101">
        <ele>0.00000</ele>
        <time>2026-03-26T00:48:35Z</time>
      </trkpt>
      <trkpt lat="51.03216" lon="4.2547646">
        <ele>0.00000</ele>
        <time>2026-03-26T00:48:57Z</time>
      </trkpt>
      <trkpt lat="51.0321735" lon="4.2550435">
        <ele>0.00000</ele>
        <time>2026-03-26T00:48:59Z</time>
      </trkpt>
      <trkpt lat="51.0321026" lon="4.255301">
        <ele>0.00000</ele>
        <time>2026-03-26T00:49:01Z</time>
      </trkpt>
      <trkpt lat="51.0319471" lon="4.2556658">
        <ele>0.00000</ele>
        <time>2026-03-26T00:49:03Z</time>
      </trkpt>
      <trkpt lat="51.0319161" lon="4.255799">
        <ele>0.00000</ele>
        <time>2026-03-26T00:49:04Z</time>
      </trkpt>
      <trkpt lat="51.0318906" lon="4.2560182">
        <ele>0.00000</ele>
        <time>2026-03-26T00:49:05Z</time>
      </trkpt>
      <trkpt lat="51.0319241" lon="4.25631">
        <ele>0.00000</ele>
        <time>2026-03-26T00:49:07Z</time>
      </trkpt>
      <trkpt lat="51.0319738" lon="4.2565301">
        <ele>0.00000</ele>
        <time>2026-03-26T00:49:09Z</time>
      </trkpt>
      <trkpt lat="51.0326515" lon="4.2578695">
        <ele>0.00000</ele>
        <time>2026-03-26T00:49:19Z</time>
      </trkpt>
      <trkpt lat="51.0327325" lon="4.2581431">
        <ele>0.00000</ele>
        <time>2026-03-26T00:49:21Z</time>
      </trkpt>
      <trkpt lat="51.0327393" lon="4.2583255">
        <ele>0.00000</ele>
        <time>2026-03-26T00:49:22Z</time>
      </trkpt>
      <trkpt lat="51.0326409" lon="4.2591581">
        <ele>0.00000</ele>
        <time>2026-03-26T00:49:27Z</time>
      </trkpt>
      <trkpt lat="51.0326326" lon="4.2600775">
        <ele>0.00000</ele>
        <time>2026-03-26T00:49:32Z</time>
      </trkpt>
      <trkpt lat="51.0325896" lon="4.2606599">
        <ele>0.00000</ele>
        <time>2026-03-26T00:49:36Z</time>
      </trkpt>
      <trkpt lat="51.0324402" lon="4.2615151">
        <ele>0.00000</ele>
        <time>2026-03-26T00:49:41Z</time>
      </trkpt>
      <trkpt lat="51.0322659" lon="4.2624852">
        <ele>0.00000</ele>
        <time>2026-03-26T00:49:47Z</time>
      </trkpt>
      <trkpt lat="51.0322628" lon="4.2626179">
        <ele>0.00000</ele>
        <time>2026-03-26T00:49:48Z</time>
      </trkpt>
      <trkpt lat="51.0323056" lon="4.2627527">
        <ele>0.00000</ele>
        <time>2026-03-26T00:49:49Z</time>
      </trkpt>
      <trkpt lat="51.0324235" lon="4.2629753">
        <ele>0.00000</ele>
        <time>2026-03-26T00:49:50Z</time>
      </trkpt>
      <trkpt lat="51.0324978" lon="4.2631202">
        <ele>0.00000</ele>
        <time>2026-03-26T00:49:51Z</time>
      </trkpt>
      <trkpt lat="51.0325214" lon="4.2632114">
        <ele>0.00000</ele>
        <time>2026-03-26T00:49:52Z</time>
      </trkpt>
      <trkpt lat="51.0325079" lon="4.2633508">
        <ele>0.00000</ele>
        <time>2026-03-26T00:49:53Z</time>
      </trkpt>
      <trkpt lat="51.0325007" lon="4.2634776">
        <ele>0.00000</ele>
        <time>2026-03-26T00:49:54Z</time>
      </trkpt>
      <trkpt lat="51.0326456" lon="4.2636929">
        <ele>0.00000</ele>
        <time>2026-03-26T00:49:56Z</time>
      </trkpt>
      <trkpt lat="51.0331763" lon="4.2641287">
        <ele>0.00000</ele>
        <time>2026-03-26T00:50:01Z</time>
      </trkpt>
      <trkpt lat="51.0354742" lon="4.2688412">
        <ele>0.00000</ele>
        <time>2026-03-26T00:50:37Z</time>
      </trkpt>
      <trkpt lat="51.0358815" lon="4.2695886">
        <ele>0.00000</ele>
        <time>2026-03-26T00:50:43Z</time>
      </trkpt>
      <trkpt lat="51.0377085" lon="4.2734134">
        <ele>0.00000</ele>
        <time>2026-03-26T00:51:11Z</time>
      </trkpt>
      <trkpt lat="51.0377891" lon="4.2734929">
        <ele>0.00000</ele>
        <time>2026-03-26T00:51:12Z</time>
      </trkpt>
      <trkpt lat="51.0378874" lon="4.2734938">
        <ele>0.00000</ele>
        <time>2026-03-26T00:51:13Z</time>
      </trkpt>
      <trkpt lat="51.0397274" lon="4.2729199">
        <ele>0.00000</ele>
        <time>2026-03-26T00:51:31Z</time>
      </trkpt>
      <trkpt lat="51.0397746" lon="4.2729521">
        <ele>0.00000</ele>
        <time>2026-03-26T00:51:31Z</time>
      </trkpt>
      <trkpt lat="51.0398084" lon="4.2730433">
        <ele>0.00000</ele>
        <time>2026-03-26T00:51:32Z</time>
      </trkpt>
      <trkpt lat="51.0403323" lon="4.2762481">
        <ele>0.00000</ele>
        <time>2026-03-26T00:51:52Z</time>
      </trkpt>
      <trkpt lat="51.0402514" lon="4.2773361">
        <ele>0.00000</ele>
        <time>2026-03-26T00:51:58Z</time>
      </trkpt>
      <trkpt lat="51.039808" lon="4.2825007">
        <ele>0.00000</ele>
        <time>2026-03-26T00:52:29Z</time>
      </trkpt>
      <trkpt lat="51.039654" lon="4.2831818">
        <ele>0.00000</ele>
        <time>2026-03-26T00:52:34Z</time>
      </trkpt>
      <trkpt lat="51.039637" lon="4.2833626">
        <ele>0.00000</ele>
        <time>2026-03-26T00:52:35Z</time>
      </trkpt>
      <trkpt lat="51.0401679" lon="4.2850381">
        <ele>0.00000</ele>
        <time>2026-03-26T00:52:46Z</time>
      </trkpt>
      <trkpt lat="51.0401882" lon="4.2851669">
        <ele>0.00000</ele>
        <time>2026-03-26T00:52:47Z</time>
      </trkpt>
      <trkpt lat="51.0401781" lon="4.2852741">
        <ele>0.00000</ele>
        <time>2026-03-26T00:52:47Z</time>
      </trkpt>
      <trkpt lat="51.0401274" lon="4.28536">
        <ele>0.00000</ele>
        <time>2026-03-26T00:52:48Z</time>
      </trkpt>
      <trkpt lat="51.0400491" lon="4.2854346">
        <ele>0.00000</ele>
        <time>2026-03-26T00:52:49Z</time>
      </trkpt>
      <trkpt lat="51.0395678" lon="4.2857618">
        <ele>0.00000</ele>
        <time>2026-03-26T00:52:54Z</time>
      </trkpt>
      <trkpt lat="51.0395014" lon="4.285857">
        <ele>0.00000</ele>
        <time>2026-03-26T00:52:55Z</time>
      </trkpt>
      <trkpt lat="51.0395051" lon="4.2859898">
        <ele>0.00000</ele>
        <time>2026-03-26T00:52:55Z</time>
      </trkpt>
      <trkpt lat="51.0398779" lon="4.2883265">
        <ele>0.00000</ele>
        <time>2026-03-26T00:53:10Z</time>
      </trkpt>
      <trkpt lat="51.0383802" lon="4.2897633">
        <ele>0.00000</ele>
        <time>2026-03-26T00:53:26Z</time>
      </trkpt>
      <trkpt lat="51.0386826" lon="4.2921806">
        <ele>0.00000</ele>
        <time>2026-03-26T00:53:41Z</time>
      </trkpt>
      <trkpt lat="51.0388694" lon="4.2937186">
        <ele>0.00000</ele>
        <time>2026-03-26T00:53:50Z</time>
      </trkpt>
      <trkpt lat="51.0390715" lon="4.2953312">
        <ele>0.00000</ele>
        <time>2026-03-26T00:54:00Z</time>
      </trkpt>
      <trkpt lat="51.0392435" lon="4.2972829">
        <ele>0.00000</ele>
        <time>2026-03-26T00:54:12Z</time>
      </trkpt>
      <trkpt lat="51.0392278" lon="4.2978624">
        <ele>0.00000</ele>
        <time>2026-03-26T00:54:15Z</time>
      </trkpt>
      <trkpt lat="51.0390091" lon="4.2994423">
        <ele>0.00000</ele>
        <time>2026-03-26T00:54:25Z</time>
      </trkpt>
      <trkpt lat="51.0391716" lon="4.2994458">
        <ele>0.00000</ele>
        <time>2026-03-26T00:54:27Z</time>
      </trkpt>
      <trkpt lat="51.0393805" lon="4.2994477">
        <ele>0.00000</ele>
        <time>2026-03-26T00:54:28Z</time>
      </trkpt>
      <trkpt lat="51.0400006" lon="4.2994764">
        <ele>0.00000</ele>
        <time>2026-03-26T00:54:34Z</time>
      </trkpt>
      <trkpt lat="51.0478049" lon="4.3008249">
        <ele>0.00000</ele>
        <time>2026-03-26T00:55:49Z</time>
      </trkpt>
      <trkpt lat="51.0478929" lon="4.3012494">
        <ele>0.00000</ele>
        <time>2026-03-26T00:55:51Z</time>
      </trkpt>
      <trkpt lat="51.0478997" lon="4.3014157">
        <ele>0.00000</ele>
        <time>2026-03-26T00:55:52Z</time>
      </trkpt>
      <trkpt lat="51.047756" lon="4.3024247">
        <ele>0.00000</ele>
        <time>2026-03-26T00:55:59Z</time>
      </trkpt>
      <trkpt lat="51.0478768" lon="4.303003">
        <ele>0.00000</ele>
        <time>2026-03-26T00:56:02Z</time>
      </trkpt>
      <trkpt lat="51.0479517" lon="4.3032849">
        <ele>0.00000</ele>
        <time>2026-03-26T00:56:04Z</time>
      </trkpt>
      <trkpt lat="51.0480323" lon="4.3034543">
        <ele>0.00000</ele>
        <time>2026-03-26T00:56:05Z</time>
      </trkpt>
      <trkpt lat="51.0482864" lon="4.3036305">
        <ele>0.00000</ele>
        <time>2026-03-26T00:56:08Z</time>
      </trkpt>
      <trkpt lat="51.0492865" lon="4.304144">
        <ele>0.00000</ele>
        <time>2026-03-26T00:56:18Z</time>
      </trkpt>
      <trkpt lat="51.0494932" lon="4.3043017">
        <ele>0.00000</ele>
        <time>2026-03-26T00:56:20Z</time>
      </trkpt>
      <trkpt lat="51.049618" lon="4.3044519">
        <ele>0.00000</ele>
        <time>2026-03-26T00:56:21Z</time>
      </trkpt>
      <trkpt lat="51.0497429" lon="4.3046987">
        <ele>0.00000</ele>
        <time>2026-03-26T00:56:23Z</time>
      </trkpt>
      <trkpt lat="51.0503482" lon="4.3065965">
        <ele>0.00000</ele>
        <time>2026-03-26T00:56:36Z</time>
      </trkpt>
      <trkpt lat="51.0514637" lon="4.3096114">
        <ele>0.00000</ele>
        <time>2026-03-26T00:56:57Z</time>
      </trkpt>
      <trkpt lat="51.0506647" lon="4.3122067">
        <ele>0.00000</ele>
        <time>2026-03-26T00:57:14Z</time>
      </trkpt>
      <trkpt lat="51.0504723" lon="4.3125694">
        <ele>0.00000</ele>
        <time>2026-03-26T00:57:17Z</time>
      </trkpt>
      <trkpt lat="51.0502664" lon="4.3128258">
        <ele>0.00000</ele>
        <time>2026-03-26T00:57:19Z</time>
      </trkpt>
      <trkpt lat="51.0487825" lon="4.3138901">
        <ele>0.00000</ele>
        <time>2026-03-26T00:57:35Z</time>
      </trkpt>
      <trkpt lat="51.0485028" lon="4.3141533">
        <ele>0.00000</ele>
        <time>2026-03-26T00:57:38Z</time>
      </trkpt>
      <trkpt lat="51.0481862" lon="4.3145493">
        <ele>0.00000</ele>
        <time>2026-03-26T00:57:42Z</time>
      </trkpt>
      <trkpt lat="51.0474243" lon="4.3161399">
        <ele>0.00000</ele>
        <time>2026-03-26T00:57:54Z</time>
      </trkpt>
      <trkpt lat="51.0471098" lon="4.316833">
        <ele>0.00000</ele>
        <time>2026-03-26T00:57:59Z</time>
      </trkpt>
      <trkpt lat="51.0465029" lon="4.3176967">
        <ele>0.00000</ele>
        <time>2026-03-26T00:58:06Z</time>
      </trkpt>
      <trkpt lat="51.0461114" lon="4.3181688">
        <ele>0.00000</ele>
        <time>2026-03-26T00:58:11Z</time>
      </trkpt>
      <trkpt lat="51.0456936" lon="4.3188286">
        <ele>0.00000</ele>
        <time>2026-03-26T00:58:17Z</time>
      </trkpt>
      <trkpt lat="51.0449111" lon="4.3203199">
        <ele>0.00000</ele>
        <time>2026-03-26T00:58:28Z</time>
      </trkpt>
      <trkpt lat="51.0431487" lon="4.3221727">
        <ele>0.00000</ele>
        <time>2026-03-26T00:58:48Z</time>
      </trkpt>
      <trkpt lat="51.0432518" lon="4.3243824">
        <ele>0.00000</ele>
        <time>2026-03-26T00:59:01Z</time>
      </trkpt>
      <trkpt lat="51.0432628" lon="4.3260128">
        <ele>0.00000</ele>
        <time>2026-03-26T00:59:11Z</time>
      </trkpt>
      <trkpt lat="51.0433503" lon="4.3270555">
        <ele>0.00000</ele>
        <time>2026-03-26T00:59:17Z</time>
      </trkpt>
      <trkpt lat="51.043324" lon="4.3271102">
        <ele>0.00000</ele>
        <time>2026-03-26T00:59:18Z</time>
      </trkpt>
      <trkpt lat="51.0432692" lon="4.3273116">
        <ele>0.00000</ele>
        <time>2026-03-26T00:59:19Z</time>
      </trkpt>
      <trkpt lat="51.0432918" lon="4.3275536">
        <ele>0.00000</ele>
        <time>2026-03-26T00:59:21Z</time>
      </trkpt>
      <trkpt lat="51.0430282" lon="4.3277268">
        <ele>0.00000</ele>
        <time>2026-03-26T00:59:23Z</time>
      </trkpt>
      <trkpt lat="51.0426553" lon="4.3280334">
        <ele>0.00000</ele>
        <time>2026-03-26T00:59:27Z</time>
      </trkpt>
      <trkpt lat="51.0423287" lon="4.3284965">
        <ele>0.00000</ele>
        <time>2026-03-26T00:59:31Z</time>
      </trkpt>
      <trkpt lat="51.0425102" lon="4.32916">
        <ele>0.00000</ele>
        <time>2026-03-26T00:59:36Z</time>
      </trkpt>
      <trkpt lat="51.0420435" lon="4.3297966">
        <ele>0.00000</ele>
        <time>2026-03-26T00:59:42Z</time>
      </trkpt>
      <trkpt lat="51.041025" lon="4.3293284">
        <ele>0.00000</ele>
        <time>2026-03-26T00:59:52Z</time>
      </trkpt>
      <trkpt lat="51.0414424" lon="4.3287455">
        <ele>0.00000</ele>
        <time>2026-03-26T00:59:57Z</time>
      </trkpt>
    </trkseg>
  </trk>
</gpx>

